Time;durP1;ratioP1;P1;durP2;ratioP2;P2;SDS_P1;SDS_P2;PMS_P1;PMS_P2;Temp;Humidity;BMP_temperature;BMP_pressure;BME280_temperature;BME280_humidity;BME280_pressure;Samples;Min_cycle;Max_cycle;Signal;HPM_P1;HPM_P2
2023/01/05 00:01:16;;;;;;;;;;;17.90;90.00;;;;;;5094608;28;20011;-51
2023/01/05 00:03:42;;;;;;;;;;;17.90;90.00;;;;;;5093737;28;19916;-53
2023/01/05 00:06:11;;;;;;;;;;;17.80;90.10;;;;;;5070692;28;19913;-51
2023/01/05 00:08:37;;;;;;;;;;;17.80;90.10;;;;;;5093506;28;19908;-51
2023/01/05 00:22:31;;;;;;;;;;;17.70;90.30;;;;;;5094469;28;19931;-54
2023/01/05 00:24:56;;;;;;;;;;;17.70;90.40;;;;;;5094413;28;19908;-53
2023/01/05 00:27:22;;;;;;;;;;;17.70;90.40;;;;;;5094601;28;19915;-49
2023/01/05 00:29:47;;;;;;;;;;;17.70;90.40;;;;;;5094590;28;19915;-51
2023/01/05 00:32:13;;;;;;;;;;;17.60;90.40;;;;;;5094489;28;20410;-53
2023/01/05 00:34:38;;;;;;;;;;;17.60;90.40;;;;;;5094201;28;19920;-48
2023/01/05 00:37:04;;;;;;;;;;;17.60;90.50;;;;;;5076279;28;20023;-49
2023/01/05 00:39:29;;;;;;;;;;;17.60;90.50;;;;;;5094382;28;20417;-52
2023/01/05 00:41:54;;;;;;;;;;;17.60;90.50;;;;;;5094070;28;19908;-48
2023/01/05 00:44:20;;;;;;;;;;;17.60;90.50;;;;;;5094075;28;19965;-51
2023/01/05 00:46:45;;;;;;;;;;;17.60;90.50;;;;;;5093921;28;19919;-50
2023/01/05 00:49:11;;;;;;;;;;;17.50;90.50;;;;;;5094200;28;19931;-49
2023/01/05 00:51:36;;;;;;;;;;;17.50;90.60;;;;;;5093939;28;19908;-50
2023/01/05 00:54:02;;;;;;;;;;;17.50;90.60;;;;;;5076070;28;19952;-49
2023/01/05 00:56:27;;;;;;;;;;;17.50;90.60;;;;;;5076024;28;19909;-51
2023/01/05 00:58:54;;;;;;;;;;;17.50;90.60;;;;;;5094205;28;19978;-50
2023/01/05 01:01:20;;;;;;;;;;;17.50;90.60;;;;;;5093845;28;19916;-52
2023/01/05 01:03:45;;;;;;;;;;;17.50;90.70;;;;;;5094145;28;19908;-52
2023/01/05 01:06:11;;;;;;;;;;;17.40;90.60;;;;;;5097543;28;19912;-50
2023/01/05 01:08:37;;;;;;;;;;;17.50;90.70;;;;;;5098624;28;19990;-51
2023/01/05 01:11:06;;;;;;;;;;;17.50;90.70;;;;;;5098313;28;19934;-52
2023/01/05 01:13:31;;;;;;;;;;;17.40;90.70;;;;;;5097981;28;19908;-50
2023/01/05 01:15:57;;;;;;;;;;;17.40;90.70;;;;;;5097925;28;20355;-50
2023/01/05 01:18:22;;;;;;;;;;;17.40;90.80;;;;;;5098085;28;19914;-53
2023/01/05 01:20:48;;;;;;;;;;;17.40;90.80;;;;;;5097820;28;19916;-50
2023/01/05 01:23:13;;;;;;;;;;;17.40;90.80;;;;;;5079910;28;20007;-50
2023/01/05 01:25:39;;;;;;;;;;;17.40;90.80;;;;;;5098101;28;19954;-54
2023/01/05 01:28:04;;;;;;;;;;;17.30;90.80;;;;;;5079780;28;19965;-53
2023/01/05 01:30:30;;;;;;;;;;;17.30;90.80;;;;;;5097918;28;19958;-54
2023/01/05 01:32:55;;;;;;;;;;;17.30;90.80;;;;;;5079763;28;19908;-50
2023/01/05 01:35:21;;;;;;;;;;;17.40;90.80;;;;;;5097759;28;19927;-51
2023/01/05 01:37:46;;;;;;;;;;;17.30;90.80;;;;;;5097384;28;20370;-50
2023/01/05 01:40:12;;;;;;;;;;;17.30;90.80;;;;;;5097770;28;19912;-50
2023/01/05 01:42:38;;;;;;;;;;;17.30;90.80;;;;;;5097792;28;19915;-50
2023/01/05 01:45:36;;;;;;;;;;;17.30;90.90;;;;;;5097670;28;19908;-51
2023/01/05 01:48:01;;;;;;;;;;;17.30;90.90;;;;;;5046094;28;20420;-51
2023/01/05 01:50:27;;;;;;;;;;;17.30;90.90;;;;;;5097444;28;19916;-49
2023/01/05 01:52:56;;;;;;;;;;;17.30;90.90;;;;;;5079244;28;20011;-50
2023/01/05 01:55:21;;;;;;;;;;;17.30;90.90;;;;;;5097441;28;19908;-49
2023/01/05 01:57:47;;;;;;;;;;;17.20;90.90;;;;;;5097069;28;20464;-50
2023/01/05 02:00:13;;;;;;;;;;;17.20;90.90;;;;;;5097361;28;19916;-48
2023/01/05 02:02:39;;;;;;;;;;;17.20;90.90;;;;;;5097331;28;19915;-49
2023/01/05 02:05:06;;;;;;;;;;;17.20;90.90;;;;;;5097274;28;20343;-51
2023/01/05 02:07:33;;;;;;;;;;;17.20;90.90;;;;;;5097153;28;19908;-50
2023/01/05 02:09:59;;;;;;;;;;;17.20;90.90;;;;;;5097225;28;19915;-52
2023/01/05 02:12:27;;;;;;;;;;;17.20;90.90;;;;;;5097106;28;20409;-50
2023/01/05 02:15:11;;;;;;;;;;;17.10;90.90;;;;;;5097134;28;19908;-50
2023/01/05 02:17:42;;;;;;;;;;;17.10;91.00;;;;;;5095600;28;20332;-51
2023/01/05 02:20:28;;;;;;;;;;;17.10;91.00;;;;;;5097010;28;19912;-49
2023/01/05 02:22:57;;;;;;;;;;;17.10;91.00;;;;;;5097024;28;20287;-53
2023/01/05 02:25:31;;;;;;;;;;;17.10;91.00;;;;;;5096584;28;19961;-50
2023/01/05 02:28:02;;;;;;;;;;;17.10;91.00;;;;;;5096898;28;20268;-49
2023/01/05 02:30:46;;;;;;;;;;;17.10;91.10;;;;;;5096788;28;19909;-51
2023/01/05 02:33:11;;;;;;;;;;;17.10;91.10;;;;;;5097184;28;19915;-50
2023/01/05 02:35:51;;;;;;;;;;;17.10;91.10;;;;;;5096526;28;20003;-49
2023/01/05 02:38:17;;;;;;;;;;;17.10;91.10;;;;;;5078398;28;19912;-49
2023/01/05 02:40:44;;;;;;;;;;;17.10;91.10;;;;;;5096335;28;19912;-51
2023/01/05 02:43:12;;;;;;;;;;;17.00;91.10;;;;;;5096268;28;19909;-50
2023/01/05 02:45:37;;;;;;;;;;;17.00;91.10;;;;;;5096512;28;19908;-53
2023/01/05 02:48:03;;;;;;;;;;;17.00;91.10;;;;;;5096188;28;19908;-52
2023/01/05 02:50:35;;;;;;;;;;;17.00;91.10;;;;;;5096098;28;19908;-51
2023/01/05 02:53:07;;;;;;;;;;;17.00;91.10;;;;;;5096664;28;19908;-48
2023/01/05 02:55:39;;;;;;;;;;;17.00;91.10;;;;;;5096321;28;19908;-50
2023/01/05 02:58:07;;;;;;;;;;;17.00;91.20;;;;;;5078059;28;19912;-48
2023/01/05 03:00:40;;;;;;;;;;;16.90;91.20;;;;;;5096223;28;19912;-48
2023/01/05 03:03:08;;;;;;;;;;;16.90;91.20;;;;;;5095918;28;19916;-49
2023/01/05 03:05:38;;;;;;;;;;;16.90;91.20;;;;;;5096394;28;19908;-50
2023/01/05 03:08:07;;;;;;;;;;;16.90;91.20;;;;;;5077799;28;19909;-50
2023/01/05 03:13:40;;;;;;;;;;;16.90;91.30;;;;;;5095770;28;19950;-54
2023/01/05 03:16:07;;;;;;;;;;;16.90;91.30;;;;;;5095934;28;20003;-49
2023/01/05 03:19:34;;;;;;;;;;;16.90;91.30;;;;;;5077945;28;19965;-49
2023/01/05 03:21:20;;;;;;;;;;;16.80;91.30;;;;;;5095725;28;19912;-52
2023/01/05 03:37:50;;;;;;;;;;;16.80;91.40;;;;;;5095278;28;20282;-53
2023/01/05 03:40:20;;;;;;;;;;;16.80;91.40;;;;;;5095187;28;19912;-54
2023/01/05 03:42:46;;;;;;;;;;;16.80;91.40;;;;;;5095373;28;19908;-52
2023/01/05 03:45:12;;;;;;;;;;;16.80;91.50;;;;;;5095432;28;19909;-50
2023/01/05 03:47:37;;;;;;;;;;;16.70;91.40;;;;;;5095267;28;19912;-52
2023/01/05 03:50:03;;;;;;;;;;;16.70;91.50;;;;;;5094943;28;19954;-52
2023/01/05 03:52:28;;;;;;;;;;;16.70;91.50;;;;;;5095158;28;19908;-52
2023/01/05 03:54:54;;;;;;;;;;;16.70;91.50;;;;;;5094868;28;20316;-48
2023/01/05 03:57:19;;;;;;;;;;;16.70;91.50;;;;;;5076541;28;19912;-50
2023/01/05 03:59:45;;;;;;;;;;;16.70;91.50;;;;;;5095084;28;19919;-52
2023/01/05 04:02:10;;;;;;;;;;;16.70;91.50;;;;;;5095033;28;19973;-49
2023/01/05 04:04:36;;;;;;;;;;;16.70;91.50;;;;;;5094700;28;20260;-51
2023/01/05 04:07:01;;;;;;;;;;;16.70;91.50;;;;;;5094674;28;19960;-52
2023/01/05 04:09:26;;;;;;;;;;;16.70;91.50;;;;;;5094600;28;20082;-52
2023/01/05 04:11:52;;;;;;;;;;;16.70;91.60;;;;;;5094792;28;20011;-54
2023/01/05 04:14:17;;;;;;;;;;;16.70;91.50;;;;;;5076557;28;19908;-51
2023/01/05 04:16:43;;;;;;;;;;;16.70;91.60;;;;;;5094937;28;20331;-50
2023/01/05 04:19:09;;;;;;;;;;;16.70;91.60;;;;;;5094396;28;19919;-49
2023/01/05 04:21:34;;;;;;;;;;;16.60;91.60;;;;;;5076481;28;20347;-51
2023/01/05 04:24:00;;;;;;;;;;;16.60;91.60;;;;;;5094660;28;19912;-51
2023/01/05 04:26:25;;;;;;;;;;;16.60;91.50;;;;;;5094535;28;19909;-49
2023/01/05 04:28:51;;;;;;;;;;;16.60;91.60;;;;;;5094589;28;19908;-49
2023/01/05 04:31:16;;;;;;;;;;;16.60;91.60;;;;;;5094334;28;19914;-51
2023/01/05 04:33:44;;;;;;;;;;;16.60;91.60;;;;;;5094202;28;19925;-53
2023/01/05 04:36:10;;;;;;;;;;;16.60;91.50;;;;;;5094440;28;19920;-49
2023/01/05 04:38:35;;;;;;;;;;;16.60;91.50;;;;;;5094240;28;19923;-48
2023/01/05 04:41:01;;;;;;;;;;;16.60;91.50;;;;;;5093648;28;20282;-51
2023/01/05 04:43:26;;;;;;;;;;;16.60;91.60;;;;;;5094416;28;19916;-49
2023/01/05 04:45:52;;;;;;;;;;;16.60;91.70;;;;;;5094341;28;20406;-51
2023/01/05 04:48:17;;;;;;;;;;;16.60;91.70;;;;;;5094051;28;19912;-50
2023/01/05 04:50:43;;;;;;;;;;;16.60;91.70;;;;;;5094092;28;19994;-51
2023/01/05 04:53:09;;;;;;;;;;;16.60;91.70;;;;;;5094265;28;19947;-48
2023/01/05 04:55:34;;;;;;;;;;;16.50;91.70;;;;;;5093957;28;19908;-54
2023/01/05 04:58:00;;;;;;;;;;;16.50;91.70;;;;;;5076112;28;19942;-51
2023/01/05 05:00:25;;;;;;;;;;;16.50;91.80;;;;;;5093918;28;19915;-51
2023/01/05 05:02:51;;;;;;;;;;;16.50;91.70;;;;;;5094227;28;19908;-50
2023/01/05 05:05:16;;;;;;;;;;;16.50;91.70;;;;;;5076036;28;19908;-51
2023/01/05 05:07:42;;;;;;;;;;;16.50;91.70;;;;;;5094469;28;20227;-50
2023/01/05 05:10:07;;;;;;;;;;;16.50;91.80;;;;;;5093810;28;19908;-48
2023/01/05 05:12:33;;;;;;;;;;;16.50;91.80;;;;;;5075941;28;19995;-52
2023/01/05 05:14:58;;;;;;;;;;;16.50;91.70;;;;;;5093750;28;19938;-51
2023/01/05 05:17:24;;;;;;;;;;;16.50;91.80;;;;;;5094136;28;19968;-50
2023/01/05 05:19:49;;;;;;;;;;;16.50;91.80;;;;;;5094069;28;19912;-52
2023/01/05 05:22:15;;;;;;;;;;;16.50;91.80;;;;;;5094000;28;19961;-52
2023/01/05 05:24:40;;;;;;;;;;;16.50;91.80;;;;;;5093635;28;19912;-48
2023/01/05 05:27:06;;;;;;;;;;;16.40;91.80;;;;;;5093887;28;19994;-50
2023/01/05 05:29:31;;;;;;;;;;;16.50;91.80;;;;;;5093895;28;19908;-54
2023/01/05 05:31:57;;;;;;;;;;;16.40;91.80;;;;;;5093857;28;20007;-50
2023/01/05 05:34:22;;;;;;;;;;;16.40;91.80;;;;;;5093793;28;19908;-51
2023/01/05 05:36:47;;;;;;;;;;;16.40;91.90;;;;;;5094018;28;19973;-52
2023/01/05 05:39:14;;;;;;;;;;;16.40;91.80;;;;;;5093500;28;19908;-53
2023/01/05 05:41:39;;;;;;;;;;;16.40;91.80;;;;;;5093435;28;19916;-52
2023/01/05 05:44:05;;;;;;;;;;;16.40;91.90;;;;;;5093352;28;20224;-52
2023/01/05 05:46:31;;;;;;;;;;;16.40;91.90;;;;;;5093709;28;19919;-49
2023/01/05 05:48:57;;;;;;;;;;;16.40;91.80;;;;;;5093750;28;19908;-50
2023/01/05 05:51:22;;;;;;;;;;;16.40;91.90;;;;;;5095733;28;19908;-50
2023/01/05 05:53:48;;;;;;;;;;;16.40;92.00;;;;;;5097828;28;19915;-54
2023/01/05 05:56:13;;;;;;;;;;;16.30;91.80;;;;;;5097470;28;19912;-53
2023/01/05 05:58:39;;;;;;;;;;;16.30;91.90;;;;;;5097292;28;20373;-52
2023/01/05 06:01:04;;;;;;;;;;;16.30;91.80;;;;;;5097294;28;19908;-50
2023/01/05 06:03:30;;;;;;;;;;;16.30;91.90;;;;;;5097002;28;19912;-51
2023/01/05 06:05:55;;;;;;;;;;;16.30;91.90;;;;;;5079210;28;19912;-49
2023/01/05 06:08:21;;;;;;;;;;;16.30;91.90;;;;;;5097057;28;20007;-54
2023/01/05 06:10:49;;;;;;;;;;;16.30;91.90;;;;;;5097231;28;19908;-51
2023/01/05 06:13:16;;;;;;;;;;;16.30;92.00;;;;;;5079008;28;19908;-53
2023/01/05 06:15:41;;;;;;;;;;;16.30;92.00;;;;;;5096814;28;19908;-50
2023/01/05 06:18:07;;;;;;;;;;;16.30;92.00;;;;;;5096921;28;19970;-54
2023/01/05 06:20:33;;;;;;;;;;;16.30;92.00;;;;;;5096913;28;19936;-50
2023/01/05 06:22:58;;;;;;;;;;;16.30;92.00;;;;;;5096583;28;19965;-49
2023/01/05 06:25:23;;;;;;;;;;;16.30;92.10;;;;;;5096516;28;19908;-49
2023/01/05 06:27:49;;;;;;;;;;;16.20;92.00;;;;;;5097233;28;19908;-52
2023/01/05 06:30:14;;;;;;;;;;;16.20;92.00;;;;;;5096770;28;20278;-49
2023/01/05 06:32:40;;;;;;;;;;;16.20;92.10;;;;;;5096413;28;19912;-54
2023/01/05 06:35:05;;;;;;;;;;;16.30;92.00;;;;;;5096130;28;20282;-53
2023/01/05 06:37:31;;;;;;;;;;;16.20;92.00;;;;;;5096548;28;19939;-53
2023/01/05 06:39:56;;;;;;;;;;;16.20;92.10;;;;;;5096564;28;20270;-51
2023/01/05 06:42:22;;;;;;;;;;;16.20;92.10;;;;;;5096113;28;20274;-50
2023/01/05 06:44:47;;;;;;;;;;;16.20;92.10;;;;;;5078531;28;19909;-50
2023/01/05 06:47:13;;;;;;;;;;;16.20;92.20;;;;;;5096099;28;20366;-54
2023/01/05 06:49:38;;;;;;;;;;;16.20;92.10;;;;;;5096271;28;19927;-50
2023/01/05 06:52:04;;;;;;;;;;;16.20;92.20;;;;;;5078264;28;19912;-50
2023/01/05 06:54:29;;;;;;;;;;;16.20;92.20;;;;;;5078103;28;19908;-53
2023/01/05 06:56:55;;;;;;;;;;;16.20;92.10;;;;;;5095912;28;19916;-51
2023/01/05 06:59:20;;;;;;;;;;;16.20;92.10;;;;;;5096188;28;19919;-50
2023/01/05 07:01:46;;;;;;;;;;;16.10;92.10;;;;;;5077773;28;19909;-51
2023/01/05 07:04:11;;;;;;;;;;;16.10;92.10;;;;;;5095642;28;19915;-53
2023/01/05 07:06:37;;;;;;;;;;;16.10;92.20;;;;;;5096025;28;19931;-51
2023/01/05 07:09:02;;;;;;;;;;;16.10;92.20;;;;;;5095566;28;19915;-53
2023/01/05 07:11:28;;;;;;;;;;;16.10;92.20;;;;;;5095716;28;19961;-51
2023/01/05 07:13:53;;;;;;;;;;;16.10;92.20;;;;;;5096306;28;19908;-49
2023/01/05 07:16:19;;;;;;;;;;;16.10;92.20;;;;;;5077632;28;19908;-50
2023/01/05 07:18:44;;;;;;;;;;;16.10;92.20;;;;;;5095702;28;19916;-50
2023/01/05 07:21:10;;;;;;;;;;;16.10;92.30;;;;;;5095658;28;20406;-53
2023/01/05 07:23:36;;;;;;;;;;;16.10;92.20;;;;;;5095579;28;20053;-50
2023/01/05 07:26:03;;;;;;;;;;;16.10;92.30;;;;;;5095218;28;19909;-54
2023/01/05 07:28:28;;;;;;;;;;;16.10;92.30;;;;;;5095544;28;19991;-53
2023/01/05 07:30:54;;;;;;;;;;;16.10;92.30;;;;;;5095246;28;19951;-55
2023/01/05 07:33:19;;;;;;;;;;;16.00;92.20;;;;;;5095332;28;19908;-49
2023/01/05 07:35:45;;;;;;;;;;;16.00;92.30;;;;;;5095485;28;20438;-52
2023/01/05 07:38:10;;;;;;;;;;;16.00;92.30;;;;;;5095018;28;20283;-53
2023/01/05 07:40:36;;;;;;;;;;;16.00;92.30;;;;;;5094872;28;19909;-49
2023/01/05 07:43:01;;;;;;;;;;;16.00;92.30;;;;;;5094806;28;19944;-50
2023/01/05 07:45:27;;;;;;;;;;;16.00;92.30;;;;;;5095160;28;19908;-50
2023/01/05 07:47:52;;;;;;;;;;;16.00;92.40;;;;;;5095051;28;19908;-52
2023/01/05 07:50:17;;;;;;;;;;;16.00;92.30;;;;;;5095419;28;20373;-53
2023/01/05 07:52:43;;;;;;;;;;;16.00;92.30;;;;;;5095056;28;19908;-53
2023/01/05 07:55:09;;;;;;;;;;;16.00;92.40;;;;;;5094982;28;19958;-53
2023/01/05 07:57:34;;;;;;;;;;;16.00;92.30;;;;;;5076709;28;19916;-54
2023/01/05 08:00:00;;;;;;;;;;;16.00;92.30;;;;;;5095307;28;19909;-51
2023/01/05 08:02:26;;;;;;;;;;;16.00;92.40;;;;;;5094997;28;20318;-53
2023/01/05 08:04:52;;;;;;;;;;;15.90;92.40;;;;;;5094881;28;19908;-54
2023/01/05 08:07:17;;;;;;;;;;;15.90;92.40;;;;;;5095279;28;20251;-53
2023/01/05 08:12:28;;;;;;;;;;;15.90;92.40;;;;;;5094670;28;19966;-51
2023/01/05 08:14:53;;;;;;;;;;;15.90;92.40;;;;;;5093653;28;19926;-52
2023/01/05 08:17:19;;;;;;;;;;;15.90;92.50;;;;;;5094375;28;20010;-51
2023/01/05 08:19:45;;;;;;;;;;;16.00;92.50;;;;;;5094531;28;19995;-49
2023/01/05 08:22:10;;;;;;;;;;;15.90;92.50;;;;;;5094342;28;19918;-52
2023/01/05 08:24:35;;;;;;;;;;;15.90;92.70;;;;;;5094352;28;19908;-50
2023/01/05 08:27:01;;;;;;;;;;;15.90;92.50;;;;;;5094890;28;19959;-53
2023/01/05 08:29:27;;;;;;;;;;;15.90;92.50;;;;;;5094518;28;19908;-53
2023/01/05 08:31:52;;;;;;;;;;;15.90;92.50;;;;;;5076266;28;19948;-54
2023/01/05 08:34:17;;;;;;;;;;;15.90;92.50;;;;;;5094295;28;20342;-52
2023/01/05 08:36:43;;;;;;;;;;;15.90;92.50;;;;;;5093867;28;19931;-51
2023/01/05 08:39:09;;;;;;;;;;;15.90;92.50;;;;;;5076179;28;19912;-55
2023/01/05 08:41:35;;;;;;;;;;;15.90;92.50;;;;;;5094376;28;20350;-54
2023/01/05 08:44:02;;;;;;;;;;;15.80;92.50;;;;;;5094379;28;20359;-52
2023/01/05 08:46:31;;;;;;;;;;;15.90;92.50;;;;;;5094074;28;19936;-49
2023/01/05 08:48:57;;;;;;;;;;;15.90;92.50;;;;;;5093883;28;20316;-50
2023/01/05 08:51:23;;;;;;;;;;;15.90;92.50;;;;;;5094599;28;19908;-51
2023/01/05 08:53:49;;;;;;;;;;;15.80;92.50;;;;;;5075985;28;19916;-52
2023/01/05 08:56:14;;;;;;;;;;;15.80;92.60;;;;;;5093742;28;19908;-53
2023/01/05 08:58:40;;;;;;;;;;;15.90;92.60;;;;;;5093864;28;19920;-49
2023/01/05 09:01:10;;;;;;;;;;;15.90;92.60;;;;;;5093714;28;19944;-50
2023/01/05 09:03:36;;;;;;;;;;;15.90;92.60;;;;;;5093965;28;19915;-51
2023/01/05 09:06:03;;;;;;;;;;;15.80;92.60;;;;;;5093620;28;19908;-50
2023/01/05 09:08:32;;;;;;;;;;;15.80;92.60;;;;;;5093291;28;20379;-49
2023/01/05 09:11:12;;;;;;;;;;;15.80;92.70;;;;;;5092133;28;19916;-49
2023/01/05 09:13:38;;;;;;;;;;;15.80;92.60;;;;;;5088919;28;19912;-53
2023/01/05 09:16:05;;;;;;;;;;;15.80;92.60;;;;;;5094036;28;19953;-53
2023/01/05 09:18:30;;;;;;;;;;;15.80;92.60;;;;;;5093786;28;19966;-50
2023/01/05 09:20:56;;;;;;;;;;;15.80;92.60;;;;;;5093560;28;20331;-52
2023/01/05 09:23:21;;;;;;;;;;;15.80;92.60;;;;;;5093838;28;19915;-51
2023/01/05 09:25:47;;;;;;;;;;;15.80;92.60;;;;;;5098565;28;19912;-52
2023/01/05 09:28:12;;;;;;;;;;;15.80;92.60;;;;;;5105002;28;19915;-50
2023/01/05 09:30:38;;;;;;;;;;;15.80;92.60;;;;;;5098718;28;19908;-55
2023/01/05 09:33:03;;;;;;;;;;;15.80;92.60;;;;;;5118166;28;19961;-49
2023/01/05 09:35:28;;;;;;;;;;;15.80;92.70;;;;;;5118001;28;19926;-53
2023/01/05 09:37:54;;;;;;;;;;;15.80;92.70;;;;;;5117926;28;19919;-55
2023/01/05 09:40:20;;;;;;;;;;;15.80;92.70;;;;;;5088883;28;20310;-52
2023/01/05 09:42:45;;;;;;;;;;;15.80;92.70;;;;;;5096717;28;19959;-51
2023/01/05 09:45:14;;;;;;;;;;;15.80;92.70;;;;;;5096579;28;19912;-52
2023/01/05 09:47:45;;;;;;;;;;;15.80;92.70;;;;;;5095695;28;20014;-53
2023/01/05 09:50:22;;;;;;;;;;;15.80;92.80;;;;;;5097157;28;20434;-50
2023/01/05 09:52:48;;;;;;;;;;;15.80;92.40;;;;;;5085526;28;19919;-54
2023/01/05 09:55:16;;;;;;;;;;;15.80;92.60;;;;;;5093264;28;19912;-53
2023/01/05 09:57:42;;;;;;;;;;;15.80;92.30;;;;;;5110455;28;19920;-49
2023/01/05 10:00:14;;;;;;;;;;;15.80;91.70;;;;;;5094428;28;19923;-52
2023/01/05 10:02:48;;;;;;;;;;;15.90;92.00;;;;;;5096824;28;19985;-50
2023/01/05 10:05:14;;;;;;;;;;;16.00;92.10;;;;;;5102601;28;19920;-49
2023/01/05 10:07:42;;;;;;;;;;;16.10;92.20;;;;;;5095074;28;19931;-52
2023/01/05 10:10:14;;;;;;;;;;;16.20;92.10;;;;;;5096796;28;20312;-51
2023/01/05 10:13:05;;;;;;;;;;;16.30;92.10;;;;;;5096574;28;19996;-50
2023/01/05 10:15:51;;;;;;;;;;;16.40;92.00;;;;;;5095679;28;20298;-51
2023/01/05 10:18:19;;;;;;;;;;;16.60;91.80;;;;;;5095373;28;19920;-54
2023/01/05 10:20:51;;;;;;;;;;;16.70;91.60;;;;;;5081766;28;19916;-51
2023/01/05 10:23:26;;;;;;;;;;;17.00;91.30;;;;;;5102067;28;19916;-51
2023/01/05 10:26:01;;;;;;;;;;;17.30;90.90;;;;;;5100828;28;19923;-53
2023/01/05 10:28:32;;;;;;;;;;;17.70;90.40;;;;;;5097133;28;19920;-52
2023/01/05 10:31:06;;;;;;;;;;;18.00;89.80;;;;;;5116991;28;19908;-52
2023/01/05 10:33:38;;;;;;;;;;;18.40;88.90;;;;;;5104398;28;19919;-52
2023/01/05 10:36:03;;;;;;;;;;;18.70;87.80;;;;;;5079820;28;19960;-54
2023/01/05 10:38:39;;;;;;;;;;;19.00;87.20;;;;;;5084816;28;19986;-49
2023/01/05 10:41:25;;;;;;;;;;;19.10;86.70;;;;;;5114940;28;19938;-51
2023/01/05 10:43:53;;;;;;;;;;;19.10;86.50;;;;;;5078869;28;19923;-51
2023/01/05 10:46:20;;;;;;;;;;;19.10;86.60;;;;;;5090576;28;20385;-51
2023/01/05 10:48:46;;;;;;;;;;;19.00;86.70;;;;;;5095562;28;20315;-52
2023/01/05 10:51:11;;;;;;;;;;;18.90;87.00;;;;;;5093365;28;19909;-51
2023/01/05 10:53:39;;;;;;;;;;;18.80;87.20;;;;;;5076250;28;19944;-51
2023/01/05 10:56:06;;;;;;;;;;;18.70;87.50;;;;;;5113095;28;19969;-52
2023/01/05 10:58:33;;;;;;;;;;;18.60;87.70;;;;;;5115620;28;19981;-53
2023/01/05 11:01:03;;;;;;;;;;;18.50;88.00;;;;;;5097123;28;19915;-50
2023/01/05 11:03:34;;;;;;;;;;;18.40;88.20;;;;;;5085846;28;19912;-51
2023/01/05 11:06:00;;;;;;;;;;;18.30;88.40;;;;;;5102721;28;19919;-51
2023/01/05 11:08:26;;;;;;;;;;;18.20;88.60;;;;;;5102154;28;19912;-52
2023/01/05 11:10:59;;;;;;;;;;;18.20;88.80;;;;;;5104406;28;19916;-52
2023/01/05 11:13:32;;;;;;;;;;;18.10;88.90;;;;;;5095737;28;19912;-50
2023/01/05 11:16:07;;;;;;;;;;;18.00;89.10;;;;;;5098456;28;19911;-51
2023/01/05 11:18:41;;;;;;;;;;;18.00;89.30;;;;;;5073777;28;20271;-49
2023/01/05 11:21:07;;;;;;;;;;;17.90;89.40;;;;;;5105350;28;19942;-54
2023/01/05 11:23:34;;;;;;;;;;;17.90;89.60;;;;;;5109319;28;19922;-52
2023/01/05 11:26:19;;;;;;;;;;;17.80;89.60;;;;;;5113052;28;19912;-52
2023/01/05 11:29:07;;;;;;;;;;;17.80;89.80;;;;;;5095501;28;19912;-51
2023/01/05 11:31:41;;;;;;;;;;;17.70;89.90;;;;;;5084420;28;19912;-50
2023/01/05 11:34:12;;;;;;;;;;;17.70;89.90;;;;;;5076535;28;20009;-50
2023/01/05 11:36:38;;;;;;;;;;;17.70;89.90;;;;;;5100868;28;20015;-49
2023/01/05 11:39:03;;;;;;;;;;;17.80;90.00;;;;;;5096120;28;19922;-52
2023/01/05 11:41:29;;;;;;;;;;;17.80;89.90;;;;;;5094817;28;19912;-51
2023/01/05 11:43:59;;;;;;;;;;;17.80;89.70;;;;;;5076870;28;19915;-51
2023/01/05 11:46:24;;;;;;;;;;;17.90;89.60;;;;;;5107823;28;19923;-52
2023/01/05 11:48:51;;;;;;;;;;;18.00;89.20;;;;;;5092508;28;19912;-51
2023/01/05 11:51:31;;;;;;;;;;;18.00;89.10;;;;;;5100728;28;19958;-53
2023/01/05 11:53:57;;;;;;;;;;;18.10;89.00;;;;;;5096500;28;19911;-51
2023/01/05 11:56:23;;;;;;;;;;;18.00;89.50;;;;;;5089625;28;19961;-50
2023/01/05 11:58:49;;;;;;;;;;;18.10;89.10;;;;;;5073951;28;21669;-50
2023/01/05 12:01:28;;;;;;;;;;;18.00;89.10;;;;;;5092455;28;19999;-52
2023/01/05 12:04:12;;;;;;;;;;;18.00;89.20;;;;;;5095305;28;20712;-52
2023/01/05 12:06:56;;;;;;;;;;;18.00;89.30;;;;;;5112155;28;19938;-49
2023/01/05 12:09:32;;;;;;;;;;;17.90;89.30;;;;;;5103913;28;19960;-52
2023/01/05 12:12:18;;;;;;;;;;;17.90;89.50;;;;;;5094517;28;19912;-53
2023/01/05 12:14:50;;;;;;;;;;;17.90;89.60;;;;;;5054049;28;19919;-53
2023/01/05 12:17:23;;;;;;;;;;;17.80;89.60;;;;;;5082129;28;19962;-52
2023/01/05 12:20:07;;;;;;;;;;;17.80;89.70;;;;;;5114478;28;19911;-50
2023/01/05 12:22:33;;;;;;;;;;;17.80;89.80;;;;;;5091635;28;19912;-52
2023/01/05 12:25:07;;;;;;;;;;;17.80;89.80;;;;;;5080755;28;19981;-51
2023/01/05 12:27:42;;;;;;;;;;;17.80;89.80;;;;;;5114218;28;19915;-53
2023/01/05 12:30:20;;;;;;;;;;;17.80;89.70;;;;;;5112548;28;19916;-52
2023/01/05 12:32:58;;;;;;;;;;;17.90;89.70;;;;;;5099595;28;19957;-53
2023/01/05 12:35:28;;;;;;;;;;;17.90;89.50;;;;;;5109658;28;20027;-51
2023/01/05 12:38:09;;;;;;;;;;;18.00;89.30;;;;;;5093600;28;20002;-52
2023/01/05 12:40:49;;;;;;;;;;;18.00;89.20;;;;;;5114432;28;19916;-53
2023/01/05 12:43:26;;;;;;;;;;;18.00;89.20;;;;;;5112300;28;19912;-53
2023/01/05 12:46:05;;;;;;;;;;;18.00;89.20;;;;;;5107010;28;19995;-49
2023/01/05 12:48:43;;;;;;;;;;;18.00;89.20;;;;;;5108737;28;19920;-51
2023/01/05 12:51:17;;;;;;;;;;;17.90;89.30;;;;;;5112228;28;19911;-49
2023/01/05 12:53:47;;;;;;;;;;;17.90;89.30;;;;;;5105745;28;19912;-51
2023/01/05 12:56:17;;;;;;;;;;;17.90;90.00;;;;;;5111926;28;19957;-53
2023/01/05 12:59:02;;;;;;;;;;;17.80;89.40;;;;;;5113823;28;19912;-53
2023/01/05 13:01:30;;;;;;;;;;;17.80;89.60;;;;;;5103282;28;19920;-53
2023/01/05 13:04:01;;;;;;;;;;;17.80;89.60;;;;;;5086713;28;19938;-54
2023/01/05 13:06:30;;;;;;;;;;;17.80;89.70;;;;;;5101626;28;19912;-54
2023/01/05 13:09:02;;;;;;;;;;;17.80;89.70;;;;;;5090148;28;19912;-50
2023/01/05 13:11:28;;;;;;;;;;;17.80;89.70;;;;;;5091665;28;19912;-52
2023/01/05 13:13:54;;;;;;;;;;;17.80;89.70;;;;;;5093368;28;20424;-52
2023/01/05 13:16:21;;;;;;;;;;;17.80;89.60;;;;;;5075254;28;20355;-53
2023/01/05 13:18:54;;;;;;;;;;;17.90;89.40;;;;;;5094200;28;19969;-51
2023/01/05 13:21:20;;;;;;;;;;;18.00;89.20;;;;;;5093399;28;19968;-53
2023/01/05 13:24:00;;;;;;;;;;;18.10;89.00;;;;;;5095256;28;19939;-54
2023/01/05 13:26:26;;;;;;;;;;;18.20;88.70;;;;;;5092113;28;19974;-53
2023/01/05 13:28:54;;;;;;;;;;;18.30;88.50;;;;;;5102709;28;19916;-53
2023/01/05 13:31:22;;;;;;;;;;;18.30;88.40;;;;;;5105936;28;19986;-50
2023/01/05 13:34:10;;;;;;;;;;;18.30;88.30;;;;;;5097310;28;19919;-54
2023/01/05 13:36:54;;;;;;;;;;;18.30;88.40;;;;;;5091118;28;19920;-52
2023/01/05 13:39:38;;;;;;;;;;;18.20;88.40;;;;;;5095359;28;19920;-51
2023/01/05 13:42:22;;;;;;;;;;;18.20;88.50;;;;;;5100678;28;19916;-51
2023/01/05 13:45:05;;;;;;;;;;;18.10;88.60;;;;;;5107627;28;19912;-51
2023/01/05 13:47:31;;;;;;;;;;;18.10;88.70;;;;;;5093018;28;19916;-49
2023/01/05 13:50:05;;;;;;;;;;;18.10;88.80;;;;;;5074501;28;19935;-49
2023/01/05 13:52:52;;;;;;;;;;;18.00;88.90;;;;;;5089143;28;19981;-50
2023/01/05 13:55:19;;;;;;;;;;;18.00;89.10;;;;;;5089683;28;19912;-52
2023/01/05 13:57:45;;;;;;;;;;;17.90;89.10;;;;;;5113400;28;19912;-53
2023/01/05 14:00:23;;;;;;;;;;;17.90;89.10;;;;;;5107287;28;19989;-55
2023/01/05 14:02:58;;;;;;;;;;;18.00;89.00;;;;;;5095022;28;19911;-53
2023/01/05 14:05:27;;;;;;;;;;;18.00;88.90;;;;;;5095907;28;19912;-52
2023/01/05 14:07:53;;;;;;;;;;;18.10;88.70;;;;;;5093338;28;19916;-53
2023/01/05 14:10:24;;;;;;;;;;;18.20;88.40;;;;;;5099485;28;19918;-50
2023/01/05 14:12:50;;;;;;;;;;;18.30;88.10;;;;;;5092521;28;19912;-51
2023/01/05 14:15:35;;;;;;;;;;;18.40;87.90;;;;;;5096582;28;19915;-55
2023/01/05 14:18:01;;;;;;;;;;;18.40;87.70;;;;;;5094576;28;19922;-50
2023/01/05 14:20:31;;;;;;;;;;;18.50;87.60;;;;;;5094919;28;19919;-52
2023/01/05 14:22:57;;;;;;;;;;;18.50;87.60;;;;;;5107386;28;19958;-51
2023/01/05 14:25:37;;;;;;;;;;;18.40;87.60;;;;;;5112719;28;20266;-52
2023/01/05 14:28:17;;;;;;;;;;;18.40;87.70;;;;;;5076009;28;19909;-52
2023/01/05 14:30:43;;;;;;;;;;;18.40;87.90;;;;;;5079007;28;20339;-53
2023/01/05 14:33:09;;;;;;;;;;;18.30;88.00;;;;;;5103234;28;19963;-52
2023/01/05 14:35:35;;;;;;;;;;;18.30;88.40;;;;;;5091008;28;19927;-52
2023/01/05 14:38:03;;;;;;;;;;;18.20;88.30;;;;;;5094391;28;20341;-54
2023/01/05 14:40:34;;;;;;;;;;;18.20;88.60;;;;;;5116120;28;19927;-52
2023/01/05 14:43:00;;;;;;;;;;;18.20;88.60;;;;;;5114076;28;19926;-48
2023/01/05 14:45:28;;;;;;;;;;;18.10;88.70;;;;;;5116327;28;19908;-52
2023/01/05 14:47:55;;;;;;;;;;;18.10;88.80;;;;;;5092138;28;20345;-55
2023/01/05 14:50:23;;;;;;;;;;;18.10;88.80;;;;;;5093858;28;19912;-51
2023/01/05 14:53:03;;;;;;;;;;;18.10;88.70;;;;;;5096349;28;19993;-53
2023/01/05 14:55:35;;;;;;;;;;;18.20;88.70;;;;;;5095783;28;20381;-51